sensor_id;sensor_type;location;lat;lon;timestamp;pressure;altitude;pressure_sealevel;temperature;humidity
60489;BME280;46331;49.252;8.904;2023-01-30T00:00:16;100485.91;;;-0.99;81.45
60489;BME280;46331;49.252;8.904;2023-01-30T00:00:59;100480.41;;;-0.96;81.18
60489;BME280;46331;49.252;8.904;2023-01-30T00:01:41;100476.72;;;-0.94;81.49
60489;BME280;46331;49.252;8.904;2023-01-30T00:02:22;100480.16;;;-1.03;81.66
60489;BME280;46331;49.252;8.904;2023-01-30T00:03:02;100475.88;;;-0.94;81.74
60489;BME280;46331;49.252;8.904;2023-01-30T00:03:43;100467.47;;;-0.88;81.13
60489;BME280;46331;49.252;8.904;2023-01-30T00:04:24;100475.34;;;-0.98;81.18
60489;BME280;46331;49.252;8.904;2023-01-30T00:05:05;100470.38;;;-0.91;81.32
60489;BME280;46331;49.252;8.904;2023-01-30T00:05:46;100464.78;;;-0.96;81.55
60489;BME280;46331;49.252;8.904;2023-01-30T00:06:26;100463.53;;;-0.92;81.53
60489;BME280;46331;49.252;8.904;2023-01-30T00:07:07;100464.72;;;-0.86;81.38
60489;BME280;46331;49.252;8.904;2023-01-30T00:07:47;100465.16;;;-0.91;81.27
60489;BME280;46331;49.252;8.904;2023-01-30T00:08:28;100464.13;;;-0.98;81.13
60489;BME280;46331;49.252;8.904;2023-01-30T00:09:12;100471.78;;;-0.97;81.61
60489;BME280;46331;49.252;8.904;2023-01-30T00:09:54;100464.94;;;-0.98;81.76
60489;BME280;46331;49.252;8.904;2023-01-30T00:10:34;100463.13;;;-0.97;81.79
60489;BME280;46331;49.252;8.904;2023-01-30T00:11:16;100471.09;;;-0.99;81.49
60489;BME280;46331;49.252;8.904;2023-01-30T00:11:57;100466.56;;;-0.97;81.94
60489;BME280;46331;49.252;8.904;2023-01-30T00:12:37;100472.84;;;-0.90;81.61
60489;BME280;46331;49.252;8.904;2023-01-30T00:13:18;100476.00;;;-0.96;81.57
60489;BME280;46331;49.252;8.904;2023-01-30T00:13:59;100473.16;;;-1.02;82.17
60489;BME280;46331;49.252;8.904;2023-01-30T00:14:40;100477.00;;;-1.06;82.06
60489;BME280;46331;49.252;8.904;2023-01-30T00:15:21;100472.22;;;-1.01;81.90
60489;BME280;46331;49.252;8.904;2023-01-30T00:16:02;100473.16;;;-1.02;82.02
60489;BME280;46331;49.252;8.904;2023-01-30T00:16:42;100484.94;;;-0.98;81.83
60489;BME280;46331;49.252;8.904;2023-01-30T00:17:23;100483.53;;;-0.93;81.96
60489;BME280;46331;49.252;8.904;2023-01-30T00:18:04;100484.94;;;-0.98;81.62
60489;BME280;46331;49.252;8.904;2023-01-30T00:18:44;100487.78;;;-0.92;81.21
60489;BME280;46331;49.252;8.904;2023-01-30T00:19:25;100493.28;;;-0.95;81.59
60489;BME280;46331;49.252;8.904;2023-01-30T00:20:06;100496.97;;;-0.97;81.70
60489;BME280;46331;49.252;8.904;2023-01-30T00:20:46;100498.53;;;-1.04;82.08
60489;BME280;46331;49.252;8.904;2023-01-30T00:21:27;100500.56;;;-1.08;82.25
60489;BME280;46331;49.252;8.904;2023-01-30T00:22:07;100496.75;;;-1.04;81.96
60489;BME280;46331;49.252;8.904;2023-01-30T00:22:48;100498.81;;;-1.08;82.08
60489;BME280;46331;49.252;8.904;2023-01-30T00:23:29;100502.75;;;-1.03;82.18
60489;BME280;46331;49.252;8.904;2023-01-30T00:24:10;100506.44;;;-0.96;81.84
60489;BME280;46331;49.252;8.904;2023-01-30T00:24:51;100495.03;;;-0.85;81.33
60489;BME280;46331;49.252;8.904;2023-01-30T00:25:31;100512.59;;;-0.97;81.56
60489;BME280;46331;49.252;8.904;2023-01-30T00:26:12;100510.78;;;-0.87;81.76
60489;BME280;46331;49.252;8.904;2023-01-30T00:26:54;100513.69;;;-0.90;81.71
60489;BME280;46331;49.252;8.904;2023-01-30T00:27:34;100507.53;;;-0.89;81.42
60489;BME280;46331;49.252;8.904;2023-01-30T00:28:16;100503.94;;;-0.88;81.45
60489;BME280;46331;49.252;8.904;2023-01-30T00:28:57;100508.19;;;-0.87;81.09
60489;BME280;46331;49.252;8.904;2023-01-30T00:29:37;100513.97;;;-0.93;81.21
60489;BME280;46331;49.252;8.904;2023-01-30T00:30:18;100519.31;;;-0.95;81.71
60489;BME280;46331;49.252;8.904;2023-01-30T00:30:58;100516.19;;;-0.98;81.66
60489;BME280;46331;49.252;8.904;2023-01-30T00:31:39;100523.00;;;-0.87;81.51
60489;BME280;46331;49.252;8.904;2023-01-30T00:32:19;100525.03;;;-0.81;81.09
60489;BME280;46331;49.252;8.904;2023-01-30T00:33:00;100521.22;;;-0.87;81.24
60489;BME280;46331;49.252;8.904;2023-01-30T00:33:40;100527.84;;;-1.02;82.08
60489;BME280;46331;49.252;8.904;2023-01-30T00:34:21;100524.84;;;-1.08;82.22
60489;BME280;46331;49.252;8.904;2023-01-30T00:35:01;100520.97;;;-1.03;81.98
60489;BME280;46331;49.252;8.904;2023-01-30T00:35:46;100508.66;;;-1.01;82.09
60489;BME280;46331;49.252;8.904;2023-01-30T00:36:27;100518.09;;;-1.00;81.78
60489;BME280;46331;49.252;8.904;2023-01-30T00:37:07;100513.44;;;-1.06;81.93
60489;BME280;46331;49.252;8.904;2023-01-30T00:37:48;100517.97;;;-1.09;82.57
60489;BME280;46331;49.252;8.904;2023-01-30T00:38:29;100516.19;;;-0.98;82.28
60489;BME280;46331;49.252;8.904;2023-01-30T00:39:09;100514.09;;;-0.95;82.21
60489;BME280;46331;49.252;8.904;2023-01-30T00:39:50;100513.16;;;-0.94;81.87
60489;BME280;46331;49.252;8.904;2023-01-30T00:40:30;100509.03;;;-0.96;81.79
60489;BME280;46331;49.252;8.904;2023-01-30T00:41:11;100511.13;;;-1.00;81.63
60489;BME280;46331;49.252;8.904;2023-01-30T00:41:52;100505.28;;;-1.21;83.01
60489;BME280;46331;49.252;8.904;2023-01-30T00:42:52;100504.88;;;-1.17;82.29
60489;BME280;46331;49.252;8.904;2023-01-30T00:43:51;100507.44;;;-1.07;82.07
60489;BME280;46331;49.252;8.904;2023-01-30T00:45:04;100499.75;;;-1.09;82.45
60489;BME280;46331;49.252;8.904;2023-01-30T00:46:11;100501.13;;;-1.14;82.36
60489;BME280;46331;49.252;8.904;2023-01-30T00:47:31;100499.38;;;-1.14;82.96
60489;BME280;46331;49.252;8.904;2023-01-30T00:48:12;100495.78;;;-1.13;82.22
60489;BME280;46331;49.252;8.904;2023-01-30T00:48:52;100497.03;;;-1.07;82.46
60489;BME280;46331;49.252;8.904;2023-01-30T00:49:35;100504.69;;;-1.05;82.41
60489;BME280;46331;49.252;8.904;2023-01-30T00:50:15;100498.97;;;-1.19;83.00
60489;BME280;46331;49.252;8.904;2023-01-30T00:50:57;100504.44;;;-1.22;83.58
60489;BME280;46331;49.252;8.904;2023-01-30T00:51:37;100497.72;;;-1.15;83.60
60489;BME280;46331;49.252;8.904;2023-01-30T00:52:18;100501.94;;;-1.04;83.05
60489;BME280;46331;49.252;8.904;2023-01-30T00:53:02;100499.47;;;-1.05;82.80
60489;BME280;46331;49.252;8.904;2023-01-30T00:53:42;100498.78;;;-0.98;82.95
60489;BME280;46331;49.252;8.904;2023-01-30T00:54:23;100495.75;;;-0.93;82.76
60489;BME280;46331;49.252;8.904;2023-01-30T00:55:05;100490.38;;;-0.92;82.79
60489;BME280;46331;49.252;8.904;2023-01-30T00:55:46;100484.47;;;-0.84;82.47
60489;BME280;46331;49.252;8.904;2023-01-30T00:56:26;100481.81;;;-0.74;81.79
60489;BME280;46331;49.252;8.904;2023-01-30T00:57:07;100488.38;;;-0.70;81.89
60489;BME280;46331;49.252;8.904;2023-01-30T00:57:47;100484.66;;;-0.67;81.56
60489;BME280;46331;49.252;8.904;2023-01-30T00:58:28;100480.13;;;-0.65;81.47
60489;BME280;46331;49.252;8.904;2023-01-30T00:59:08;100470.56;;;-0.75;81.98
60489;BME280;46331;49.252;8.904;2023-01-30T00:59:49;100481.22;;;-0.68;81.55
60489;BME280;46331;49.252;8.904;2023-01-30T01:00:30;100490.03;;;-0.69;81.76
60489;BME280;46331;49.252;8.904;2023-01-30T01:01:11;100480.28;;;-0.67;82.11
60489;BME280;46331;49.252;8.904;2023-01-30T01:01:52;100483.84;;;-0.68;81.67
60489;BME280;46331;49.252;8.904;2023-01-30T01:02:32;100481.28;;;-0.50;81.58
60489;BME280;46331;49.252;8.904;2023-01-30T01:03:13;100475.47;;;-0.44;81.07
60489;BME280;46331;49.252;8.904;2023-01-30T01:03:54;100488.00;;;-0.47;81.08
60489;BME280;46331;49.252;8.904;2023-01-30T01:04:35;100474.91;;;-0.38;81.07
60489;BME280;46331;49.252;8.904;2023-01-30T01:05:22;100470.34;;;-0.36;80.63
60489;BME280;46331;49.252;8.904;2023-01-30T01:06:03;100471.84;;;-0.33;80.75
60489;BME280;46331;49.252;8.904;2023-01-30T01:06:43;100474.16;;;-0.30;80.09
60489;BME280;46331;49.252;8.904;2023-01-30T01:07:24;100476.31;;;-0.25;80.05
60489;BME280;46331;49.252;8.904;2023-01-30T01:08:04;100470.50;;;-0.37;80.23
60489;BME280;46331;49.252;8.904;2023-01-30T01:08:45;100472.50;;;-0.31;79.64
60489;BME280;46331;49.252;8.904;2023-01-30T01:09:25;100463.59;;;-0.28;79.58
60489;BME280;46331;49.252;8.904;2023-01-30T01:10:06;100465.38;;;-0.29;79.32
60489;BME280;46331;49.252;8.904;2023-01-30T01:10:47;100461.44;;;-0.15;79.05
60489;BME280;46331;49.252;8.904;2023-01-30T01:11:28;100461.59;;;-0.16;78.96
60489;BME280;46331;49.252;8.904;2023-01-30T01:12:08;100466.88;;;-0.08;78.94
60489;BME280;46331;49.252;8.904;2023-01-30T01:12:49;100460.63;;;0.03;78.59
60489;BME280;46331;49.252;8.904;2023-01-30T01:13:33;100469.63;;;-0.10;78.39
60489;BME280;46331;49.252;8.904;2023-01-30T01:14:13;100467.97;;;-0.11;78.29
60489;BME280;46331;49.252;8.904;2023-01-30T01:14:57;100459.72;;;-0.06;78.18
60489;BME280;46331;49.252;8.904;2023-01-30T01:15:38;100458.53;;;-0.12;78.69
60489;BME280;46331;49.252;8.904;2023-01-30T01:16:19;100458.84;;;0.03;77.98
60489;BME280;46331;49.252;8.904;2023-01-30T01:17:00;100465.22;;;-0.09;78.26
60489;BME280;46331;49.252;8.904;2023-01-30T01:17:41;100467.75;;;-0.17;78.50
60489;BME280;46331;49.252;8.904;2023-01-30T01:18:21;100463.00;;;-0.04;77.98
60489;BME280;46331;49.252;8.904;2023-01-30T01:19:02;100454.03;;;-0.02;77.57
60489;BME280;46331;49.252;8.904;2023-01-30T01:19:43;100453.94;;;0.00;77.72
60489;BME280;46331;49.252;8.904;2023-01-30T01:20:24;100443.09;;;0.13;77.00
60489;BME280;46331;49.252;8.904;2023-01-30T01:21:04;100443.91;;;0.13;77.13
60489;BME280;46331;49.252;8.904;2023-01-30T01:21:45;100450.47;;;0.17;77.14
60489;BME280;46331;49.252;8.904;2023-01-30T01:22:25;100442.66;;;0.17;76.32
60489;BME280;46331;49.252;8.904;2023-01-30T01:23:09;100438.50;;;0.07;76.35
60489;BME280;46331;49.252;8.904;2023-01-30T01:23:54;100437.38;;;0.09;76.61
60489;BME280;46331;49.252;8.904;2023-01-30T01:24:37;100430.41;;;0.18;76.51
60489;BME280;46331;49.252;8.904;2023-01-30T01:25:18;100430.22;;;0.11;76.66
60489;BME280;46331;49.252;8.904;2023-01-30T01:26:01;100423.06;;;0.13;76.75
60489;BME280;46331;49.252;8.904;2023-01-30T01:26:43;100426.09;;;0.09;76.60
60489;BME280;46331;49.252;8.904;2023-01-30T01:27:24;100424.75;;;0.23;76.79
60489;BME280;46331;49.252;8.904;2023-01-30T01:28:05;100421.94;;;0.16;76.66
60489;BME280;46331;49.252;8.904;2023-01-30T01:28:46;100422.53;;;0.10;76.82
60489;BME280;46331;49.252;8.904;2023-01-30T01:29:26;100418.66;;;0.14;77.37
60489;BME280;46331;49.252;8.904;2023-01-30T01:30:07;100410.75;;;0.06;77.25
60489;BME280;46331;49.252;8.904;2023-01-30T01:30:50;100419.13;;;-0.09;77.80
60489;BME280;46331;49.252;8.904;2023-01-30T01:31:30;100406.16;;;-0.01;77.44
60489;BME280;46331;49.252;8.904;2023-01-30T01:32:11;100399.97;;;0.01;77.64
60489;BME280;46331;49.252;8.904;2023-01-30T01:32:51;100407.19;;;0.07;77.79
60489;BME280;46331;49.252;8.904;2023-01-30T01:33:32;100398.25;;;0.09;77.43
60489;BME280;46331;49.252;8.904;2023-01-30T01:34:12;100404.13;;;0.11;77.29
60489;BME280;46331;49.252;8.904;2023-01-30T01:34:53;100403.63;;;0.08;77.35
60489;BME280;46331;49.252;8.904;2023-01-30T01:35:33;100409.50;;;0.10;77.10
60489;BME280;46331;49.252;8.904;2023-01-30T01:36:14;100397.28;;;-0.08;77.48
60489;BME280;46331;49.252;8.904;2023-01-30T01:36:55;100397.56;;;0.07;77.22
60489;BME280;46331;49.252;8.904;2023-01-30T01:37:36;100390.13;;;0.12;76.68
60489;BME280;46331;49.252;8.904;2023-01-30T01:38:17;100386.94;;;0.01;76.56
60489;BME280;46331;49.252;8.904;2023-01-30T01:38:57;100390.78;;;0.14;76.85
60489;BME280;46331;49.252;8.904;2023-01-30T01:39:38;100391.28;;;0.18;76.84
60489;BME280;46331;49.252;8.904;2023-01-30T01:40:37;100375.41;;;0.03;76.39
60489;BME280;46331;49.252;8.904;2023-01-30T01:41:36;100380.16;;;0.08;76.62
60489;BME280;46331;49.252;8.904;2023-01-30T01:42:17;100371.19;;;0.10;76.60
60489;BME280;46331;49.252;8.904;2023-01-30T01:42:58;100376.41;;;0.10;76.67
60489;BME280;46331;49.252;8.904;2023-01-30T01:44:10;100383.16;;;0.21;76.66
60489;BME280;46331;49.252;8.904;2023-01-30T01:45:22;100375.66;;;0.18;76.69
60489;BME280;46331;49.252;8.904;2023-01-30T01:46:08;100375.00;;;0.16;76.81
60489;BME280;46331;49.252;8.904;2023-01-30T01:46:58;100391.44;;;0.16;76.58
60489;BME280;46331;49.252;8.904;2023-01-30T01:47:42;100393.41;;;0.14;76.52
60489;BME280;46331;49.252;8.904;2023-01-30T01:50:04;100391.22;;;0.28;75.60
60489;BME280;46331;49.252;8.904;2023-01-30T01:50:51;100376.63;;;0.17;76.12
60489;BME280;46331;49.252;8.904;2023-01-30T01:51:43;100384.34;;;0.27;76.08
60489;BME280;46331;49.252;8.904;2023-01-30T01:52:26;100382.50;;;0.19;76.42
60489;BME280;46331;49.252;8.904;2023-01-30T01:53:07;100380.25;;;0.24;76.13
60489;BME280;46331;49.252;8.904;2023-01-30T01:53:54;100384.16;;;0.20;76.21
60489;BME280;46331;49.252;8.904;2023-01-30T01:54:44;100379.94;;;0.27;76.19
60489;BME280;46331;49.252;8.904;2023-01-30T01:55:27;100379.56;;;0.14;76.08
60489;BME280;46331;49.252;8.904;2023-01-30T01:56:09;100387.22;;;0.15;76.35
60489;BME280;46331;49.252;8.904;2023-01-30T01:56:52;100375.03;;;0.24;76.01
60489;BME280;46331;49.252;8.904;2023-01-30T01:57:41;100374.09;;;0.33;75.99
60489;BME280;46331;49.252;8.904;2023-01-30T01:59:29;100377.72;;;0.32;75.65
60489;BME280;46331;49.252;8.904;2023-01-30T02:00:16;100385.53;;;0.32;75.85
60489;BME280;46331;49.252;8.904;2023-01-30T02:00:58;100389.63;;;0.35;75.49
60489;BME280;46331;49.252;8.904;2023-01-30T02:01:39;100395.56;;;0.19;75.69
60489;BME280;46331;49.252;8.904;2023-01-30T02:02:20;100378.19;;;0.28;75.71
60489;BME280;46331;49.252;8.904;2023-01-30T02:03:06;100382.25;;;0.30;75.42
60489;BME280;46331;49.252;8.904;2023-01-30T02:03:53;100371.97;;;0.29;75.51
60489;BME280;46331;49.252;8.904;2023-01-30T02:04:38;100371.78;;;0.22;75.83
60489;BME280;46331;49.252;8.904;2023-01-30T02:05:42;100387.56;;;0.21;76.16
60489;BME280;46331;49.252;8.904;2023-01-30T02:06:24;100382.25;;;0.30;76.38
60489;BME280;46331;49.252;8.904;2023-01-30T02:07:07;100387.91;;;0.26;76.24
60489;BME280;46331;49.252;8.904;2023-01-30T02:08:01;100379.09;;;0.45;75.50
60489;BME280;46331;49.252;8.904;2023-01-30T02:08:47;100378.78;;;0.48;75.58
60489;BME280;46331;49.252;8.904;2023-01-30T02:09:31;100378.09;;;0.46;75.32
60489;BME280;46331;49.252;8.904;2023-01-30T02:10:23;100372.38;;;0.42;75.43
60489;BME280;46331;49.252;8.904;2023-01-30T02:12:01;100360.72;;;0.28;75.02
60489;BME280;46331;49.252;8.904;2023-01-30T02:12:45;100363.03;;;0.31;75.46
60489;BME280;46331;49.252;8.904;2023-01-30T02:13:26;100355.22;;;0.40;75.43
60489;BME280;46331;49.252;8.904;2023-01-30T02:14:10;100357.91;;;0.48;75.30
60489;BME280;46331;49.252;8.904;2023-01-30T02:14:52;100352.53;;;0.49;75.19
60489;BME280;46331;49.252;8.904;2023-01-30T02:15:34;100354.97;;;0.51;74.98
60489;BME280;46331;49.252;8.904;2023-01-30T02:16:15;100350.91;;;0.57;75.08
60489;BME280;46331;49.252;8.904;2023-01-30T02:16:57;100351.06;;;0.55;74.98
60489;BME280;46331;49.252;8.904;2023-01-30T02:17:38;100349.75;;;0.51;74.84
60489;BME280;46331;49.252;8.904;2023-01-30T02:18:18;100351.03;;;0.47;75.06
60489;BME280;46331;49.252;8.904;2023-01-30T02:18:59;100357.03;;;0.39;75.19
60489;BME280;46331;49.252;8.904;2023-01-30T02:22:02;100348.78;;;0.52;75.15
60489;BME280;46331;49.252;8.904;2023-01-30T02:23:16;100350.44;;;0.61;74.70
60489;BME280;46331;49.252;8.904;2023-01-30T02:25:07;100343.56;;;0.52;74.83
60489;BME280;46331;49.252;8.904;2023-01-30T02:26:12;100344.91;;;0.64;74.78
60489;BME280;46331;49.252;8.904;2023-01-30T02:28:00;100337.72;;;0.58;73.99
60489;BME280;46331;49.252;8.904;2023-01-30T02:31:08;100339.19;;;0.61;74.31
60489;BME280;46331;49.252;8.904;2023-01-30T02:31:56;100339.53;;;0.66;73.93
60489;BME280;46331;49.252;8.904;2023-01-30T02:33:53;100339.44;;;0.76;73.14
60489;BME280;46331;49.252;8.904;2023-01-30T02:34:56;100341.75;;;0.87;73.01
60489;BME280;46331;49.252;8.904;2023-01-30T02:35:54;100329.31;;;0.73;72.80
60489;BME280;46331;49.252;8.904;2023-01-30T02:40:46;100320.31;;;0.75;72.65
60489;BME280;46331;49.252;8.904;2023-01-30T02:45:40;100290.22;;;0.46;73.39
60489;BME280;46331;49.252;8.904;2023-01-30T02:46:30;100290.78;;;0.32;74.20
60489;BME280;46331;49.252;8.904;2023-01-30T02:47:20;100286.59;;;0.39;74.14
60489;BME280;46331;49.252;8.904;2023-01-30T02:48:12;100298.78;;;0.30;74.44
60489;BME280;46331;49.252;8.904;2023-01-30T02:48:58;100301.84;;;0.26;74.30
60489;BME280;46331;49.252;8.904;2023-01-30T02:49:47;100299.25;;;0.26;74.80
60489;BME280;46331;49.252;8.904;2023-01-30T02:50:56;100295.00;;;0.25;74.60
60489;BME280;46331;49.252;8.904;2023-01-30T02:51:37;100295.22;;;0.40;74.49
60489;BME280;46331;49.252;8.904;2023-01-30T02:52:20;100302.75;;;0.43;74.38
60489;BME280;46331;49.252;8.904;2023-01-30T02:53:03;100304.50;;;0.34;74.62
60489;BME280;46331;49.252;8.904;2023-01-30T02:53:47;100298.28;;;0.27;74.52
60489;BME280;46331;49.252;8.904;2023-01-30T02:54:29;100295.03;;;0.33;74.30
60489;BME280;46331;49.252;8.904;2023-01-30T02:55:22;100294.84;;;0.26;74.92
60489;BME280;46331;49.252;8.904;2023-01-30T02:56:04;100288.00;;;0.25;74.51
60489;BME280;46331;49.252;8.904;2023-01-30T02:56:55;100285.56;;;0.32;74.56
60489;BME280;46331;49.252;8.904;2023-01-30T02:57:36;100284.94;;;0.38;74.08
60489;BME280;46331;49.252;8.904;2023-01-30T02:58:20;100279.63;;;0.48;74.13
60489;BME280;46331;49.252;8.904;2023-01-30T02:59:04;100280.13;;;0.51;73.98
60489;BME280;46331;49.252;8.904;2023-01-30T02:59:54;100277.00;;;0.48;73.93
60489;BME280;46331;49.252;8.904;2023-01-30T03:01:18;100271.94;;;0.46;73.80
60489;BME280;46331;49.252;8.904;2023-01-30T03:03:09;100273.72;;;0.46;74.22
60489;BME280;46331;49.252;8.904;2023-01-30T03:09:15;100287.28;;;0.49;74.18
60489;BME280;46331;49.252;8.904;2023-01-30T03:10:15;100284.53;;;0.51;73.90
60489;BME280;46331;49.252;8.904;2023-01-30T03:11:06;100292.84;;;0.55;73.71
60489;BME280;46331;49.252;8.904;2023-01-30T03:12:00;100297.22;;;0.46;73.67
60489;BME280;46331;49.252;8.904;2023-01-30T03:13:02;100307.34;;;0.49;73.15
60489;BME280;46331;49.252;8.904;2023-01-30T03:13:50;100304.09;;;0.55;73.11
60489;BME280;46331;49.252;8.904;2023-01-30T03:14:41;100308.78;;;0.43;72.95
60489;BME280;46331;49.252;8.904;2023-01-30T03:15:41;100311.75;;;0.48;72.74
60489;BME280;46331;49.252;8.904;2023-01-30T03:16:39;100324.16;;;0.55;72.81
60489;BME280;46331;49.252;8.904;2023-01-30T03:17:22;100322.19;;;0.57;72.29
60489;BME280;46331;49.252;8.904;2023-01-30T03:18:06;100314.31;;;0.40;73.11
60489;BME280;46331;49.252;8.904;2023-01-30T03:18:48;100317.72;;;0.32;73.24
60489;BME280;46331;49.252;8.904;2023-01-30T03:19:30;100313.47;;;0.31;73.62
60489;BME280;46331;49.252;8.904;2023-01-30T03:20:12;100321.72;;;0.19;73.57
60489;BME280;46331;49.252;8.904;2023-01-30T03:20:53;100303.38;;;0.37;73.29
60489;BME280;46331;49.252;8.904;2023-01-30T03:21:39;100309.09;;;0.40;73.13
60489;BME280;46331;49.252;8.904;2023-01-30T03:22:21;100327.59;;;0.55;73.34
60489;BME280;46331;49.252;8.904;2023-01-30T03:23:01;100323.44;;;0.44;73.11
60489;BME280;46331;49.252;8.904;2023-01-30T03:23:46;100324.78;;;0.48;73.14
60489;BME280;46331;49.252;8.904;2023-01-30T03:24:27;100331.75;;;0.40;73.13
60489;BME280;46331;49.252;8.904;2023-01-30T03:25:08;100332.00;;;0.20;74.11
60489;BME280;46331;49.252;8.904;2023-01-30T03:25:51;100325.06;;;0.37;73.71
60489;BME280;46331;49.252;8.904;2023-01-30T03:26:33;100332.13;;;0.45;73.67
60489;BME280;46331;49.252;8.904;2023-01-30T03:27:16;100336.72;;;0.51;73.51
60489;BME280;46331;49.252;8.904;2023-01-30T03:27:57;100331.88;;;0.30;73.37
60489;BME280;46331;49.252;8.904;2023-01-30T03:28:39;100327.38;;;0.40;73.64
60489;BME280;46331;49.252;8.904;2023-01-30T03:29:20;100331.50;;;0.51;73.43
60489;BME280;46331;49.252;8.904;2023-01-30T03:30:01;100338.66;;;0.49;73.39
60489;BME280;46331;49.252;8.904;2023-01-30T03:30:42;100335.28;;;0.30;73.98
60489;BME280;46331;49.252;8.904;2023-01-30T03:31:23;100327.53;;;0.39;73.91
60489;BME280;46331;49.252;8.904;2023-01-30T03:32:04;100332.53;;;0.32;74.11
60489;BME280;46331;49.252;8.904;2023-01-30T03:32:45;100333.97;;;0.26;74.27
60489;BME280;46331;49.252;8.904;2023-01-30T03:33:27;100326.34;;;0.33;74.22
60489;BME280;46331;49.252;8.904;2023-01-30T03:34:08;100339.81;;;0.20;74.64
60489;BME280;46331;49.252;8.904;2023-01-30T03:34:48;100325.69;;;0.31;74.59
60489;BME280;46331;49.252;8.904;2023-01-30T03:35:29;100337.56;;;0.25;74.31
60489;BME280;46331;49.252;8.904;2023-01-30T03:36:10;100333.56;;;0.13;74.63
60489;BME280;46331;49.252;8.904;2023-01-30T03:36:51;100341.03;;;0.08;75.31
60489;BME280;46331;49.252;8.904;2023-01-30T03:37:31;100341.34;;;0.05;75.50
60489;BME280;46331;49.252;8.904;2023-01-30T03:38:12;100335.56;;;0.19;75.77
60489;BME280;46331;49.252;8.904;2023-01-30T03:38:53;100338.78;;;0.13;75.44
60489;BME280;46331;49.252;8.904;2023-01-30T03:39:36;100337.44;;;0.09;75.33
60489;BME280;46331;49.252;8.904;2023-01-30T03:40:19;100336.66;;;-0.10;75.84
60489;BME280;46331;49.252;8.904;2023-01-30T03:41:00;100349.72;;;-0.10;76.25
60489;BME280;46331;49.252;8.904;2023-01-30T03:41:41;100344.13;;;0.03;75.98
60489;BME280;46331;49.252;8.904;2023-01-30T03:42:22;100338.38;;;-0.01;76.07
60489;BME280;46331;49.252;8.904;2023-01-30T03:43:02;100339.41;;;0.07;76.53
60489;BME280;46331;49.252;8.904;2023-01-30T03:43:43;100343.81;;;0.06;76.18
60489;BME280;46331;49.252;8.904;2023-01-30T03:44:24;100350.47;;;0.09;76.03
60489;BME280;46331;49.252;8.904;2023-01-30T03:45:05;100351.66;;;-0.12;76.40
60489;BME280;46331;49.252;8.904;2023-01-30T03:45:46;100347.44;;;-0.05;76.47
60489;BME280;46331;49.252;8.904;2023-01-30T03:46:26;100347.38;;;0.05;76.30
60489;BME280;46331;49.252;8.904;2023-01-30T03:47:07;100336.47;;;0.10;76.44
60489;BME280;46331;49.252;8.904;2023-01-30T03:47:48;100325.47;;;-0.02;76.14
60489;BME280;46331;49.252;8.904;2023-01-30T03:48:30;100326.38;;;0.07;76.19
60489;BME280;46331;49.252;8.904;2023-01-30T03:49:10;100310.38;;;0.02;76.22
60489;BME280;46331;49.252;8.904;2023-01-30T03:49:51;100316.28;;;-0.14;76.76
60489;BME280;46331;49.252;8.904;2023-01-30T03:50:32;100323.59;;;-0.18;77.17
60489;BME280;46331;49.252;8.904;2023-01-30T03:51:14;100324.44;;;-0.09;77.36
60489;BME280;46331;49.252;8.904;2023-01-30T03:51:54;100322.09;;;0.06;77.01
60489;BME280;46331;49.252;8.904;2023-01-30T03:52:35;100331.50;;;-0.02;76.87
60489;BME280;46331;49.252;8.904;2023-01-30T03:53:16;100332.13;;;-0.08;77.02
60489;BME280;46331;49.252;8.904;2023-01-30T03:53:57;100331.97;;;-0.06;76.92
60489;BME280;46331;49.252;8.904;2023-01-30T03:54:37;100332.19;;;0.01;76.82
60489;BME280;46331;49.252;8.904;2023-01-30T03:55:18;100331.88;;;0.04;76.81
60489;BME280;46331;49.252;8.904;2023-01-30T03:55:58;100331.22;;;0.02;76.86
60489;BME280;46331;49.252;8.904;2023-01-30T03:56:44;100326.41;;;-0.11;77.28
60489;BME280;46331;49.252;8.904;2023-01-30T03:57:24;100336.06;;;-0.04;77.41
60489;BME280;46331;49.252;8.904;2023-01-30T03:58:05;100333.41;;;-0.12;77.30
60489;BME280;46331;49.252;8.904;2023-01-30T03:58:47;100337.94;;;-0.14;77.88
60489;BME280;46331;49.252;8.904;2023-01-30T03:59:31;100328.91;;;-0.02;77.06
60489;BME280;46331;49.252;8.904;2023-01-30T04:00:18;100333.44;;;-0.04;77.26
60489;BME280;46331;49.252;8.904;2023-01-30T04:01:03;100333.44;;;-0.04;77.34
60489;BME280;46331;49.252;8.904;2023-01-30T04:01:44;100343.75;;;-0.20;77.70
60489;BME280;46331;49.252;8.904;2023-01-30T04:02:24;100337.13;;;-0.14;77.85
60489;BME280;46331;49.252;8.904;2023-01-30T04:03:06;100341.13;;;-0.02;77.96
60489;BME280;46331;49.252;8.904;2023-01-30T04:03:47;100340.31;;;-0.03;77.51
60489;BME280;46331;49.252;8.904;2023-01-30T04:04:28;100330.13;;;-0.14;78.31
60489;BME280;46331;49.252;8.904;2023-01-30T04:05:09;100331.97;;;-0.06;78.17
60489;BME280;46331;49.252;8.904;2023-01-30T04:05:51;100322.91;;;-0.20;79.38
60489;BME280;46331;49.252;8.904;2023-01-30T04:06:31;100321.84;;;-0.09;79.78
60489;BME280;46331;49.252;8.904;2023-01-30T04:07:12;100332.22;;;-0.17;79.71
60489;BME280;46331;49.252;8.904;2023-01-30T04:07:57;100324.75;;;-0.12;79.75
60489;BME280;46331;49.252;8.904;2023-01-30T04:08:38;100317.91;;;-0.13;80.26
60489;BME280;46331;49.252;8.904;2023-01-30T04:09:19;100324.03;;;-0.23;80.26
60489;BME280;46331;49.252;8.904;2023-01-30T04:10:04;100316.59;;;-0.36;80.23
60489;BME280;46331;49.252;8.904;2023-01-30T04:10:44;100318.59;;;-0.29;80.45
60489;BME280;46331;49.252;8.904;2023-01-30T04:11:25;100314.19;;;-0.55;81.16
60489;BME280;46331;49.252;8.904;2023-01-30T04:12:06;100320.19;;;-0.55;82.13
60489;BME280;46331;49.252;8.904;2023-01-30T04:12:52;100322.75;;;-0.63;81.89
60489;BME280;46331;49.252;8.904;2023-01-30T04:13:33;100319.91;;;-0.51;81.87
60489;BME280;46331;49.252;8.904;2023-01-30T04:14:14;100324.38;;;-0.44;81.63
60489;BME280;46331;49.252;8.904;2023-01-30T04:15:17;100327.94;;;-0.45;81.36
60489;BME280;46331;49.252;8.904;2023-01-30T04:16:23;100326.66;;;-0.41;80.80
60489;BME280;46331;49.252;8.904;2023-01-30T04:17:23;100327.47;;;-0.40;81.27